AirNav   ProFlight Series 2 Aviation Headset
 
 1051 users online  

MI57 Eagle Heliport
Romeo, Michigan, USA

GOING TO ROMEO?


FAA INFORMATION EFFECTIVE 16 JULY 2020

Location

FAA Identifier: MI57
Lat/Long: 42-47-35.0000N 083-01-34.0000W
42-47.583333N 083-01.566667W
42.7930556,-83.0261111
(estimated)
Elevation: 605 ft. / 184 m (estimated)
From city: 1 mile SW of ROMEO, MI
Time zone: UTC -4 (UTC -5 during Standard Time)
Zip code: 48095

Heliport Operations

Heliport use: Private use. Permission required prior to landing
Activation date: 09/2004
Control tower: no
ARTCC: CLEVELAND CENTER
FSS: LANSING FLIGHT SERVICE STATION
Attendance: UNATNDD
Segmented circle: no

Heliport Communications

WX AWOS-3 at VLL (16 nm SW): 119.475 (248-288-4649)
WX ASOS at PTK (19 nm SW): 125.025 (248-886-8551)
WX AWOS-3P at D95 (20 nm NW): 134.050 (810-664-5038)

Nearby radio navigation aids

VOR radial/distance  VOR name  Freq  Var
FNTr114/33.4FLINT VORTAC116.9006W
SVMr050/34.1SALEM VORTAC114.3003W
DXOr029/37.9DETROIT VOR/DME113.4006W

Heliport Services

Runway Information

Helipad H1

Dimensions: 16 x 16 ft. / 5 x 5 m
Surface: concrete
Traffic pattern: leftleft

Heliport Ownership and Management from official FAA records

Ownership: Privately-owned
Owner: WILLIAM ZICHICHI
67400 ROSE DRIVE
WASHINGTON, MI 48095
Phone 586-336-0854
Manager: WILLIAM ZICHICHI
67400 ROSE DRIVE
WASHINGTON, MI 48095
Phone 586-336-0854

Additional Remarks

FOR CD CTC CLEVELAND ARTCC AT 440-774-0490.

Instrument Procedures

There are no published instrument procedures at MI57.

Some nearby airports with instrument procedures:

D98 - Romeo State Airport (2 nm E)
57D - Ray Community Airport (7 nm SE)
KMTC - Selfridge Air National Guard Base (14 nm SE)
KVLL - Oakland/Troy Airport (16 nm SW)
KPTK - Oakland County International Airport (19 nm SW)
D95 - Dupont-Lapeer Airport (20 nm NW)
 
Loc | Ops | Rwys | IFR | FBO | Links
Com | Nav | Svcs | Stats | Notes
Area around MI57 (Eagle Heliport)
 
Road maps at: MapQuest Bing Google
 
Aerial photo
No photo
 
Sectional chart

 
Airport distance calculator
Flying to Eagle Heliport? Find the distance to fly.

From to MI57

Sunrise and sunset
Times for 04-Aug-2020
 Local
(UTC-4)
 Zulu
(UTC)
Morning civil twilight05:5709:57
Sunrise06:2910:29
Sunset20:4700:47
Evening civil twilight21:1901:19

Current date and time
Zulu (UTC)  05-Aug-2020 00:29:49
Local (UTC-4)  04-Aug-2020 20:29:49
 
METAR
KMTC 
14nm SE 
042356Z 33005KT 10SM SCT044 BKN065 BKN080 17/17 A2996 RMK AO2A RAE16 SLP149 P0000 60019 T01690169 10228 20166 52006
KVLL 
16nm SW 
050015Z AUTO 01003KT 10SM SCT023 BKN043 OVC075 19/16 A3000 RMK AO2 T01920155
KPTK 
19nm SW 
050012Z 34006KT 10SM SCT025 BKN055 17/14 A2997 RMK AO2 T01720139 $
KD95 
20nm NW 
050015Z AUTO 29003KT 10SM SCT080 OVC100 18/17 A2998 RMK AO2 T01800167
KDET 
24nm S 
050010Z 01006KT 10SM FEW019 BKN044 OVC070 19/14 A2998 RMK AO2 T01890139
KPHN 
24nm E 
050015Z AUTO 00000KT 10SM BKN075 OVC090 16/15 A2997 RMK AO2
TAF
KMTC 
14nm SE 
041700Z 0417/0523 34009KT 9999 BKN035 QNH2990INS BECMG 0418/0419 33009KT 9000 -SHRA BKN030 QNH2991INS BECMG 0420/0421 33010G15KT 9000 -SHRA BKN035 QNH2993INS BECMG 0500/0501 VRB06KT 9999 NSW BKN020 QNH2998INS TX23/0419Z TN13/0511Z
KPTK 
19nm SW 
041739Z 0418/0518 33012KT P6SM SCT020 BKN035 TEMPO 0419/0423 -SHRA BKN028 FM042300 34010KT P6SM SCT035 BKN045 FM050200 33004KT P6SM SCT040 FM051000 30005KT P6SM FEW030 SCT040
NOTAMs
Click for the latest NOTAMs
NOTAMs are issued by the DoD/FAA and will open in a separate window not controlled by AirNav.

 

 
 

Would you like to see your business listed on this page?

 If your business provides an interesting product or service to pilots, flight crews, aircraft, or users of the Eagle Heliport, you should consider listing it here.  To start the listing process, click on the button below
 
Add a business
 

Other Pages about Eagle Heliport

Update a link
 
Copyright © AirNav, LLC. All rights reserved. Privacy Policy  Contact